Time;durP1;ratioP1;P1;durP2;ratioP2;P2;SDS_P1;SDS_P2;PMS_P1;PMS_P2;Temp;Humidity;BMP_temperature;BMP_pressure;BME280_temperature;BME280_humidity;BME280_pressure;Samples;Min_cycle;Max_cycle;Signal;HPM_P1;HPM_P2
2023/03/08 00:02:13;;;;;;;7.70;5.70;;;4.10;80.60;;;;;;5050359;28;20232;-72
2023/03/08 00:04:39;;;;;;;8.70;6.10;;;4.10;80.60;;;;;;5050407;28;20418;-72
2023/03/08 00:07:04;;;;;;;8.53;6.87;;;4.00;81.10;;;;;;5050317;28;20217;-72
2023/03/08 00:09:30;;;;;;;11.50;6.63;;;4.00;80.80;;;;;;5050200;28;20251;-72
2023/03/08 00:11:56;;;;;;;12.93;6.10;;;4.00;81.30;;;;;;5050351;28;20219;-72
2023/03/08 00:14:21;;;;;;;11.20;6.30;;;4.00;81.20;;;;;;5050288;28;20195;-72
2023/03/08 00:16:47;;;;;;;9.27;5.93;;;4.10;81.70;;;;;;5050252;28;20201;-72
2023/03/08 00:19:13;;;;;;;6.95;4.75;;;4.10;81.40;;;;;;5050126;28;20696;-72
2023/03/08 00:21:39;;;;;;;9.70;6.20;;;4.00;81.10;;;;;;5049987;28;20198;-72
2023/03/08 00:24:05;;;;;;;9.23;5.90;;;4.10;81.60;;;;;;5050162;28;20459;-72
2023/03/08 00:26:30;;;;;;;13.90;6.30;;;4.10;80.90;;;;;;5050055;28;20282;-72
2023/03/08 00:28:56;;;;;;;9.77;6.17;;;4.10;81.20;;;;;;5050012;28;20241;-72
2023/03/08 00:31:21;;;;;;;9.63;5.73;;;4.20;81.30;;;;;;5049975;28;20189;-72
2023/03/08 00:33:50;;;;;;;9.93;6.70;;;4.10;81.00;;;;;;5050113;28;20294;-72
2023/03/08 00:36:17;;;;;;;7.57;5.32;;;4.10;81.30;;;;;;5048986;28;20666;-72
2023/03/08 00:38:44;;;;;;;8.40;5.55;;;4.10;80.90;;;;;;5051327;28;20211;-72
2023/03/08 00:41:10;;;;;;;9.18;6.03;;;4.10;81.00;;;;;;5050566;28;20267;-71
2023/03/08 00:43:35;;;;;;;7.63;5.27;;;4.30;81.60;;;;;;5050630;28;20282;-72
2023/03/08 00:46:01;;;;;;;8.97;5.60;;;4.10;81.30;;;;;;5050442;28;20425;-72
2023/03/08 00:48:27;;;;;;;7.43;5.57;;;4.20;81.50;;;;;;5050176;28;21008;-72
2023/03/08 00:50:52;;;;;;;9.73;6.50;;;4.20;81.40;;;;;;5050067;28;20232;-72
2023/03/08 00:53:18;;;;;;;6.60;4.60;;;4.10;81.10;;;;;;5049967;28;20185;-72
2023/03/08 00:55:55;;;;;;;11.10;5.25;;;4.10;81.20;;;;;;5049813;28;20182;-73
2023/03/08 00:58:22;;;;;;;9.75;5.65;;;4.10;81.80;;;;;;5049674;28;20810;-72
2023/03/08 01:00:48;;;;;;;11.00;5.72;;;4.10;81.60;;;;;;5049550;28;20285;-72
2023/03/08 01:03:15;;;;;;;9.20;5.57;;;4.00;81.70;;;;;;5049486;28;20746;-72
2023/03/08 01:05:42;;;;;;;10.25;5.72;;;4.00;81.70;;;;;;5049511;28;20186;-72
2023/03/08 01:08:08;;;;;;;9.80;6.32;;;4.00;82.10;;;;;;5049460;28;20232;-72
2023/03/08 01:10:34;;;;;;;11.30;6.23;;;4.00;82.30;;;;;;5049245;28;20243;-72
2023/03/08 01:13:00;;;;;;;9.70;5.47;;;4.00;82.10;;;;;;5049266;28;20460;-72
2023/03/08 01:15:25;;;;;;;8.63;6.00;;;4.00;82.40;;;;;;5049120;28;20226;-72
2023/03/08 01:17:51;;;;;;;14.53;7.17;;;4.00;82.50;;;;;;5048972;28;20209;-72
2023/03/08 01:20:16;;;;;;;9.23;5.50;;;4.00;82.40;;;;;;5048923;28;20216;-72
2023/03/08 01:22:42;;;;;;;11.63;6.43;;;3.90;82.20;;;;;;5049221;28;20191;-72
2023/03/08 01:25:08;;;;;;;10.40;5.80;;;3.90;82.80;;;;;;5048886;28;20535;-72
2023/03/08 01:27:34;;;;;;;10.77;6.23;;;3.90;82.50;;;;;;5048947;28;20235;-72
2023/03/08 01:29:59;;;;;;;12.27;6.20;;;3.90;82.70;;;;;;5048845;28;20428;-72
2023/03/08 01:32:26;;;;;;;8.97;6.00;;;3.90;82.80;;;;;;5048706;28;20322;-72
2023/03/08 01:34:51;;;;;;;10.65;6.57;;;3.90;83.30;;;;;;5048719;28;20676;-72
2023/03/08 01:37:20;;;;;;;8.90;5.83;;;3.90;82.90;;;;;;5047330;28;20282;-73
2023/03/08 01:39:45;;;;;;;8.45;5.45;;;3.90;82.80;;;;;;5047233;28;20636;-72
2023/03/08 01:42:11;;;;;;;10.63;5.87;;;3.90;82.40;;;;;;5047501;28;20277;-72
2023/03/08 01:45:03;;;;;;;10.37;5.83;;;3.90;82.30;;;;;;5048759;28;20864;-72
2023/03/08 01:47:31;;;;;;;11.68;6.20;;;3.90;82.50;;;;;;5048557;28;20235;-72
2023/03/08 01:50:04;;;;;;;9.85;5.93;;;3.90;82.10;;;;;;5048231;28;20221;-72
2023/03/08 01:52:45;;;;;;;8.00;5.28;;;3.90;81.70;;;;;;5048629;28;20201;-72
2023/03/08 01:55:12;;;;;;;9.68;5.85;;;4.00;82.40;;;;;;5048831;28;20524;-72
2023/03/08 01:57:41;;;;;;;9.17;5.90;;;3.90;81.80;;;;;;5048366;28;20187;-72
2023/03/08 02:00:13;;;;;;;8.93;4.93;;;3.90;81.80;;;;;;5048210;28;20546;-73
2023/03/08 02:02:56;;;;;;;10.45;6.40;;;3.90;81.90;;;;;;5048386;28;20226;-73
2023/03/08 02:05:23;;;;;;;8.00;5.35;;;3.90;82.00;;;;;;5048431;28;20618;-73
2023/03/08 02:07:48;;;;;;;7.60;4.80;;;3.90;82.20;;;;;;5048395;28;20218;-72
2023/03/08 02:10:16;;;;;;;13.60;5.63;;;3.80;82.50;;;;;;5048251;28;20182;-73
2023/03/08 02:12:42;;;;;;;7.63;5.30;;;3.60;82.60;;;;;;5048295;28;20193;-73
2023/03/08 02:15:10;;;;;;;9.10;6.03;;;3.60;83.50;;;;;;5048284;28;20194;-73
2023/03/08 02:17:38;;;;;;;12.77;6.00;;;3.60;82.90;;;;;;5048148;28;20182;-73
2023/03/08 02:20:21;;;;;;;7.80;5.00;;;3.60;82.80;;;;;;5048246;28;20233;-73
2023/03/08 02:22:50;;;;;;;6.75;5.15;;;3.60;82.80;;;;;;5048433;28;20679;-73
2023/03/08 02:25:22;;;;;;;8.90;5.35;;;3.60;82.70;;;;;;5048210;28;20183;-73
2023/03/08 02:27:49;;;;;;;9.63;5.47;;;3.60;83.30;;;;;;5048314;28;20183;-73
2023/03/08 02:30:23;;;;;;;7.68;5.18;;;3.70;83.00;;;;;;5048061;28;20224;-73
2023/03/08 02:32:48;;;;;;;9.85;5.30;;;3.70;82.10;;;;;;5048340;28;20189;-73
2023/03/08 02:35:14;;;;;;;10.27;4.50;;;3.80;81.80;;;;;;5047998;28;20247;-73
2023/03/08 02:37:39;;;;;;;8.63;5.57;;;3.90;82.00;;;;;;5048310;28;20201;-73
2023/03/08 02:40:06;;;;;;;7.63;5.20;;;3.90;82.20;;;;;;5048172;28;20222;-73
2023/03/08 02:42:31;;;;;;;6.65;4.65;;;3.90;81.40;;;;;;5048230;28;20181;-73
2023/03/08 02:44:57;;;;;;;7.83;5.10;;;3.90;81.00;;;;;;5046757;28;20539;-73
2023/03/08 02:47:23;;;;;;;9.50;5.67;;;4.00;81.40;;;;;;5048125;28;20182;-73
2023/03/08 02:49:48;;;;;;;8.27;5.40;;;4.00;81.00;;;;;;5048073;28;20210;-72
2023/03/08 02:52:14;;;;;;;12.70;5.87;;;4.10;81.00;;;;;;5047898;28;20571;-72
2023/03/08 02:54:39;;;;;;;8.10;5.70;;;4.10;81.40;;;;;;5048064;28;20185;-72
2023/03/08 02:57:05;;;;;;;10.13;5.60;;;4.10;81.10;;;;;;5048065;28;20583;-73
2023/03/08 02:59:31;;;;;;;6.83;5.27;;;4.10;80.20;;;;;;5048190;28;20226;-73
2023/03/08 03:01:56;;;;;;;8.77;5.33;;;4.10;80.90;;;;;;5048561;28;20610;-72
2023/03/08 03:04:22;;;;;;;8.17;5.70;;;4.20;81.10;;;;;;5052102;28;20206;-73
2023/03/08 03:06:48;;;;;;;7.93;5.20;;;4.20;80.60;;;;;;5052383;28;20652;-73
2023/03/08 03:09:13;;;;;;;12.67;5.90;;;4.20;80.90;;;;;;5052215;28;20555;-73
2023/03/08 03:11:39;;;;;;;9.33;6.13;;;4.20;80.70;;;;;;5052217;28;20238;-73
2023/03/08 03:14:06;;;;;;;8.10;5.25;;;4.20;81.00;;;;;;5052126;28;20179;-73
2023/03/08 03:16:32;;;;;;;9.67;6.20;;;4.20;81.30;;;;;;5052047;28;20604;-75
2023/03/08 03:18:58;;;;;;;10.10;6.13;;;4.20;81.20;;;;;;5051652;28;20460;-73
2023/03/08 03:21:23;;;;;;;20.53;6.67;;;4.30;81.40;;;;;;5051688;28;21001;-73
2023/03/08 03:23:49;;;;;;;8.23;5.80;;;4.30;81.90;;;;;;5051624;28;20425;-73
2023/03/08 03:26:18;;;;;;;8.43;5.50;;;4.30;81.60;;;;;;5051350;28;20183;-73
2023/03/08 03:28:44;;;;;;;9.37;5.13;;;4.30;81.30;;;;;;5051214;28;20492;-73
2023/03/08 03:31:13;;;;;;;9.63;6.00;;;4.20;81.50;;;;;;5051231;28;20423;-73
2023/03/08 03:33:39;;;;;;;10.90;6.05;;;4.20;81.50;;;;;;5051044;28;20230;-73
2023/03/08 03:36:06;;;;;;;8.67;6.03;;;4.20;82.10;;;;;;5050935;28;20199;-73
2023/03/08 03:38:32;;;;;;;8.75;5.47;;;4.20;81.80;;;;;;5050841;28;20451;-73
2023/03/08 03:41:06;;;;;;;9.57;6.03;;;4.20;82.40;;;;;;5050908;28;20229;-73
2023/03/08 03:43:32;;;;;;;8.17;5.50;;;4.20;81.50;;;;;;5050781;28;20768;-73
2023/03/08 03:45:59;;;;;;;7.00;5.40;;;4.30;81.40;;;;;;5050622;28;20424;-73
2023/03/08 03:48:26;;;;;;;9.43;6.37;;;4.20;81.90;;;;;;5050653;28;20437;-73
2023/03/08 03:50:59;;;;;;;12.50;6.72;;;4.30;82.00;;;;;;5050742;28;20889;-73
2023/03/08 03:53:27;;;;;;;14.83;5.53;;;4.30;82.00;;;;;;5050652;28;20183;-73
2023/03/08 03:55:53;;;;;;;9.50;6.00;;;4.40;81.90;;;;;;5049248;28;20902;-73
2023/03/08 03:58:19;;;;;;;14.20;6.20;;;4.40;81.30;;;;;;5050373;28;20214;-73
2023/03/08 04:00:44;;;;;;;10.70;6.00;;;4.30;81.50;;;;;;5050283;28;20285;-73
2023/03/08 04:03:10;;;;;;;7.87;5.97;;;4.20;82.40;;;;;;5048929;28;20339;-73
2023/03/08 04:05:36;;;;;;;10.77;6.33;;;4.20;82.10;;;;;;5050543;28;20182;-73
2023/03/08 04:08:01;;;;;;;10.10;6.77;;;4.20;82.20;;;;;;5050316;28;20202;-73
2023/03/08 04:10:27;;;;;;;8.47;5.50;;;4.10;82.30;;;;;;5050448;28;20187;-73
2023/03/08 04:12:52;;;;;;;8.23;5.07;;;4.10;82.90;;;;;;5048393;28;20198;-73
2023/03/08 04:15:18;;;;;;;9.30;5.63;;;4.00;83.70;;;;;;5050242;28;20269;-73
2023/03/08 04:17:44;;;;;;;8.63;5.53;;;4.00;84.30;;;;;;5049962;28;20231;-72
2023/03/08 04:20:10;;;;;;;10.90;5.77;;;3.90;84.20;;;;;;5049989;28;20214;-73
2023/03/08 04:22:36;;;;;;;11.68;6.40;;;3.90;84.80;;;;;;5050037;28;20187;-73
2023/03/08 04:25:02;;;;;;;8.77;5.80;;;3.90;85.10;;;;;;5049961;28;20544;-73
2023/03/08 04:27:28;;;;;;;8.57;5.25;;;3.80;85.30;;;;;;5049872;28;20417;-74
2023/03/08 04:29:54;;;;;;;12.40;6.10;;;3.80;85.30;;;;;;5049904;28;20222;-73
2023/03/08 04:32:19;;;;;;;13.87;6.73;;;3.80;85.70;;;;;;5049715;28;20613;-73
2023/03/08 04:34:45;;;;;;;9.43;6.27;;;3.80;85.90;;;;;;5049737;28;20193;-73
2023/03/08 04:37:11;;;;;;;10.60;7.17;;;3.70;86.40;;;;;;5048108;28;20246;-73
2023/03/08 04:39:36;;;;;;;10.90;6.88;;;3.60;87.00;;;;;;5049699;28;20316;-73
2023/03/08 04:42:02;;;;;;;11.87;7.43;;;3.60;88.10;;;;;;5049586;28;20987;-73
2023/03/08 04:44:28;;;;;;;9.57;6.43;;;3.60;88.90;;;;;;5049775;28;20666;-73
2023/03/08 04:46:54;;;;;;;11.33;7.30;;;3.50;89.50;;;;;;5049444;28;20216;-74
2023/03/08 04:49:19;;;;;;;13.70;7.53;;;3.50;90.00;;;;;;5048000;28;20202;-74
2023/03/08 04:51:45;;;;;;;14.13;8.33;;;3.50;90.50;;;;;;5049514;28;20182;-74
2023/03/08 04:54:10;;;;;;;12.67;8.20;;;3.40;90.60;;;;;;5049649;28;20931;-73
2023/03/08 04:56:36;;;;;;;12.57;8.17;;;3.50;90.70;;;;;;5049538;28;20186;-74
2023/03/08 04:59:01;;;;;;;19.07;8.70;;;3.50;90.70;;;;;;5049500;28;20209;-73
2023/03/08 05:01:27;;;;;;;11.50;8.10;;;3.50;91.00;;;;;;5049638;28;20715;-74
2023/03/08 05:03:52;;;;;;;14.93;8.13;;;3.50;91.00;;;;;;5049277;28;20191;-74
2023/03/08 05:06:20;;;;;;;14.90;9.00;;;3.50;91.30;;;;;;5049391;28;20206;-74
2023/03/08 05:08:46;;;;;;;15.18;8.80;;;3.50;91.60;;;;;;5049252;28;20236;-74
2023/03/08 05:11:20;;;;;;;15.23;9.50;;;3.50;91.60;;;;;;5049226;28;20217;-74
2023/03/08 05:13:46;;;;;;;14.25;8.65;;;3.50;91.70;;;;;;5049473;28;20482;-74
2023/03/08 05:16:12;;;;;;;17.00;9.43;;;3.50;91.80;;;;;;5049583;28;20195;-74
2023/03/08 05:18:38;;;;;;;14.53;8.93;;;3.40;92.00;;;;;;5049689;28;21307;-74
2023/03/08 05:21:06;;;;;;;13.40;8.57;;;3.40;92.20;;;;;;5049667;28;20460;-73
2023/03/08 05:23:32;;;;;;;15.05;9.23;;;3.40;92.30;;;;;;5049565;28;20624;-73
2023/03/08 05:26:00;;;;;;;16.05;8.95;;;3.40;92.50;;;;;;5048044;28;20198;-73
2023/03/08 05:28:28;;;;;;;14.43;8.25;;;3.40;92.80;;;;;;5048949;28;20211;-72
2023/03/08 05:31:09;;;;;;;18.90;9.43;;;3.50;92.40;;;;;;5048816;28;20248;-73
2023/03/08 05:33:35;;;;;;;15.57;7.95;;;3.50;92.70;;;;;;5048715;28;20222;-73
2023/03/08 05:36:01;;;;;;;16.05;10.30;;;3.50;93.10;;;;;;5048689;28;20208;-73
2023/03/08 05:38:27;;;;;;;17.37;9.20;;;3.50;93.50;;;;;;5048729;28;20221;-73
2023/03/08 05:40:53;;;;;;;15.30;9.35;;;3.50;93.80;;;;;;5048933;28;20221;-73
2023/03/08 05:43:18;;;;;;;16.27;9.73;;;3.50;93.90;;;;;;5049043;28;20189;-73
2023/03/08 05:45:56;;;;;;;12.00;8.17;;;3.60;94.00;;;;;;5048821;28;20185;-73
2023/03/08 05:48:22;;;;;;;16.08;9.77;;;3.60;94.20;;;;;;5048729;28;20855;-74
2023/03/08 05:50:48;;;;;;;17.48;9.30;;;3.60;94.60;;;;;;5048897;28;20195;-74
2023/03/08 05:53:13;;;;;;;19.67;10.20;;;3.70;94.60;;;;;;5049020;28;20191;-74
2023/03/08 05:55:39;;;;;;;19.87;10.23;;;3.70;94.90;;;;;;5048787;28;20194;-74
2023/03/08 05:58:04;;;;;;;21.03;10.60;;;3.70;94.90;;;;;;5048306;28;20210;-73
2023/03/08 06:00:30;;;;;;;19.60;11.43;;;3.80;95.00;;;;;;5047883;28;20221;-74
2023/03/08 06:02:58;;;;;;;20.70;10.30;;;3.80;95.10;;;;;;5047982;28;20566;-74
2023/03/08 06:05:24;;;;;;;19.63;11.77;;;3.80;95.70;;;;;;5048202;28;20227;-73
2023/03/08 06:07:49;;;;;;;20.60;10.93;;;3.80;95.80;;;;;;5047492;28;20660;-73
2023/03/08 06:10:16;;;;;;;17.93;11.33;;;3.90;96.50;;;;;;5047754;28;20205;-73
2023/03/08 06:12:41;;;;;;;18.27;10.60;;;3.90;96.40;;;;;;5047482;28;20187;-74
2023/03/08 06:15:07;;;;;;;16.13;10.63;;;3.90;96.60;;;;;;5047843;28;20246;-74
2023/03/08 06:17:33;;;;;;;22.93;11.27;;;3.90;96.60;;;;;;5047868;28;20194;-74
2023/03/08 06:19:59;;;;;;;18.37;10.40;;;4.00;96.60;;;;;;5047444;28;20460;-73
2023/03/08 06:22:24;;;;;;;20.53;10.27;;;4.00;97.00;;;;;;5047651;28;20181;-73
2023/03/08 06:24:50;;;;;;;23.47;11.90;;;4.00;97.00;;;;;;5047369;28;20656;-74
2023/03/08 06:27:16;;;;;;;24.70;12.67;;;4.00;97.40;;;;;;5047456;28;20692;-74
2023/03/08 06:29:42;;;;;;;17.45;11.20;;;4.10;97.20;;;;;;5047435;28;20340;-73
2023/03/08 06:32:08;;;;;;;23.17;12.73;;;4.10;97.40;;;;;;5047295;28;20274;-74
2023/03/08 06:34:34;;;;;;;18.23;11.40;;;4.10;97.40;;;;;;5047265;28;20186;-74
2023/03/08 06:36:59;;;;;;;19.20;10.80;;;4.10;97.70;;;;;;5047582;28;20986;-74
2023/03/08 06:39:29;;;;;;;21.00;12.70;;;4.10;97.80;;;;;;5050940;28;20259;-73
2023/03/08 06:41:54;;;;;;;20.65;11.10;;;4.10;98.00;;;;;;5051017;28;20186;-74
2023/03/08 06:44:20;;;;;;;18.67;11.47;;;4.20;98.10;;;;;;5051261;28;20558;-73
2023/03/08 06:46:46;;;;;;;25.43;13.17;;;4.20;97.90;;;;;;5051221;28;20187;-74
2023/03/08 06:49:11;;;;;;;19.33;10.40;;;4.20;97.70;;;;;;5050799;28;20211;-74
2023/03/08 06:51:37;;;;;;;16.47;10.93;;;4.20;98.40;;;;;;5050786;28;20178;-75
2023/03/08 06:54:03;;;;;;;17.70;11.13;;;4.30;97.90;;;;;;5049184;28;20200;-75
2023/03/08 06:56:29;;;;;;;17.75;12.23;;;4.40;97.70;;;;;;5050778;28;20185;-74
2023/03/08 06:58:54;;;;;;;20.77;11.80;;;4.40;97.80;;;;;;5050181;28;20340;-74
2023/03/08 07:01:20;;;;;;;18.33;10.60;;;4.40;97.80;;;;;;5050607;28;20183;-74
2023/03/08 07:03:47;;;;;;;21.20;12.10;;;4.40;98.50;;;;;;5050594;28;20178;-73
2023/03/08 07:06:13;;;;;;;19.37;11.73;;;4.50;98.20;;;;;;5050373;28;20183;-74
2023/03/08 07:08:40;;;;;;;17.37;10.77;;;4.50;97.90;;;;;;5050688;28;21268;-74
2023/03/08 07:11:07;;;;;;;23.53;12.37;;;4.50;98.60;;;;;;5050483;28;20511;-74
2023/03/08 07:13:33;;;;;;;19.75;12.02;;;4.60;98.90;;;;;;5050303;28;20591;-74
2023/03/08 07:16:03;;;;;;;21.20;11.37;;;4.60;98.70;;;;;;5050278;28;20190;-74
2023/03/08 07:18:29;;;;;;;20.23;11.75;;;4.60;98.60;;;;;;5050001;28;20203;-74
2023/03/08 07:20:55;;;;;;;19.80;12.07;;;4.70;98.80;;;;;;5049935;28;20228;-74
2023/03/08 07:23:21;;;;;;;20.33;10.93;;;4.70;98.40;;;;;;5050000;28;20186;-74
2023/03/08 07:25:46;;;;;;;20.80;10.53;;;4.60;97.90;;;;;;5048412;28;20440;-74
2023/03/08 07:28:12;;;;;;;20.70;11.03;;;4.70;98.10;;;;;;5049486;28;20200;-74
2023/03/08 07:30:37;;;;;;;19.67;10.97;;;4.60;98.50;;;;;;5048610;28;20643;-74
2023/03/08 07:33:03;;;;;;;20.43;12.27;;;4.80;98.30;;;;;;5049775;28;20214;-74
2023/03/08 07:35:29;;;;;;;17.57;11.27;;;4.80;98.00;;;;;;5049569;28;20192;-74
2023/03/08 07:37:54;;;;;;;15.67;10.10;;;4.90;98.60;;;;;;5049408;28;20687;-74
2023/03/08 07:40:20;;;;;;;18.20;10.00;;;5.00;98.00;;;;;;5049696;28;20208;-74
2023/03/08 07:42:46;;;;;;;15.70;10.40;;;5.00;98.20;;;;;;5049743;28;20187;-74
2023/03/08 07:45:13;;;;;;;22.60;9.97;;;5.20;98.00;;;;;;5049650;28;20494;-74
2023/03/08 07:47:39;;;;;;;15.77;9.30;;;5.10;98.20;;;;;;5049014;28;20456;-74
2023/03/08 07:50:06;;;;;;;16.53;10.10;;;5.10;98.20;;;;;;5047969;28;20899;-74
2023/03/08 07:52:31;;;;;;;15.07;9.40;;;5.20;98.60;;;;;;5049559;28;20424;-74
2023/03/08 07:54:57;;;;;;;17.10;9.87;;;5.20;98.50;;;;;;5049544;28;20235;-74
2023/03/08 07:57:23;;;;;;;16.50;9.43;;;5.20;98.20;;;;;;5049483;28;20617;-73
2023/03/08 07:59:50;;;;;;;15.50;9.23;;;5.30;98.60;;;;;;5049350;28;20305;-74
2023/03/08 08:02:16;;;;;;;13.90;8.88;;;5.40;98.90;;;;;;5049150;28;20188;-75
2023/03/08 08:04:42;;;;;;;13.60;8.90;;;5.40;98.30;;;;;;5049294;28;20304;-74
2023/03/08 08:07:12;;;;;;;14.30;8.60;;;5.30;98.30;;;;;;5049025;28;20493;-74
2023/03/08 08:09:38;;;;;;;13.50;8.70;;;5.40;98.30;;;;;;5049335;28;20238;-74
2023/03/08 08:12:05;;;;;;;14.33;8.93;;;5.50;98.70;;;;;;5049433;28;20425;-74
2023/03/08 08:14:30;;;;;;;12.80;8.60;;;5.50;98.10;;;;;;5049469;28;20198;-75
2023/03/08 08:16:56;;;;;;;12.00;8.00;;;5.50;98.40;;;;;;5048095;28;20564;-74
2023/03/08 08:19:22;;;;;;;11.20;8.50;;;5.60;98.40;;;;;;5048150;28;20215;-75
2023/03/08 08:21:48;;;;;;;14.73;8.80;;;5.60;98.60;;;;;;5049530;28;20189;-74
2023/03/08 08:24:13;;;;;;;13.20;8.63;;;5.70;98.40;;;;;;5048113;28;20183;-74
2023/03/08 08:26:39;;;;;;;15.53;9.23;;;5.70;98.90;;;;;;5049438;28;21044;-74
2023/03/08 08:29:05;;;;;;;12.80;7.63;;;5.80;97.80;;;;;;5049183;28;20295;-76
2023/03/08 08:31:30;;;;;;;11.30;7.60;;;5.90;98.40;;;;;;5048865;28;20310;-74
2023/03/08 08:33:58;;;;;;;12.03;8.17;;;5.90;97.80;;;;;;5049199;28;21036;-74
2023/03/08 08:36:24;;;;;;;11.33;8.10;;;5.90;97.80;;;;;;5049003;28;20198;-74
2023/03/08 08:38:50;;;;;;;13.07;6.97;;;6.00;98.80;;;;;;5049029;28;20466;-74
2023/03/08 08:41:17;;;;;;;14.80;8.43;;;6.00;98.90;;;;;;5048774;28;20550;-74
2023/03/08 08:43:45;;;;;;;11.90;7.63;;;6.10;98.30;;;;;;5048724;28;20421;-74
2023/03/08 08:46:12;;;;;;;10.80;6.90;;;6.10;97.70;;;;;;5048461;28;21301;-74
2023/03/08 08:48:37;;;;;;;11.97;8.00;;;6.10;97.20;;;;;;5048359;28;20892;-74
2023/03/08 08:51:05;;;;;;;18.23;7.60;;;6.10;97.10;;;;;;5046803;28;20415;-74
2023/03/08 08:53:31;;;;;;;12.67;7.70;;;6.10;97.10;;;;;;5048129;28;20195;-74
2023/03/08 08:55:57;;;;;;;12.63;8.00;;;6.00;97.60;;;;;;5048068;28;20426;-73
2023/03/08 08:58:23;;;;;;;10.20;7.33;;;6.00;97.30;;;;;;5048134;28;20561;-74
2023/03/08 09:00:49;;;;;;;9.03;6.97;;;6.10;97.40;;;;;;5048106;28;20211;-73
2023/03/08 09:03:14;;;;;;;12.87;7.63;;;6.20;97.50;;;;;;5048351;28;20418;-74
2023/03/08 09:05:42;;;;;;;12.17;7.43;;;6.20;97.70;;;;;;5048224;28;20933;-74
2023/03/08 09:08:09;;;;;;;11.63;7.13;;;6.20;97.80;;;;;;5047607;28;20219;-74
2023/03/08 09:10:36;;;;;;;10.37;6.70;;;6.10;98.50;;;;;;5047736;28;20450;-74
2023/03/08 09:13:03;;;;;;;12.37;7.03;;;6.30;98.40;;;;;;5047665;28;20835;-74
2023/03/08 09:15:29;;;;;;;10.73;6.77;;;6.30;98.20;;;;;;5047709;28;20783;-73
2023/03/08 09:17:54;;;;;;;6.80;5.40;;;6.30;98.50;;;;;;5047609;28;20437;-73
2023/03/08 09:20:20;;;;;;;15.93;8.10;;;6.40;98.30;;;;;;5047468;28;20461;-73
2023/03/08 09:22:46;;;;;;;9.90;5.73;;;6.40;98.30;;;;;;5046203;28;20184;-73
2023/03/08 09:25:12;;;;;;;9.10;6.03;;;6.40;98.70;;;;;;5047421;28;20422;-74
2023/03/08 09:27:39;;;;;;;12.03;7.27;;;6.40;98.80;;;;;;5047728;28;20842;-73
2023/03/08 09:30:07;;;;;;;9.10;6.60;;;6.50;99.40;;;;;;5047286;28;20421;-73
2023/03/08 09:32:33;;;;;;;9.90;5.90;;;6.50;99.90;;;;;;5046143;28;20419;-73
2023/03/08 09:34:59;;;;;;;9.50;5.70;;;6.60;99.60;;;;;;5047599;28;20418;-73
2023/03/08 09:37:25;;;;;;;8.37;5.80;;;6.60;99.30;;;;;;5046341;28;20202;-74
2023/03/08 09:39:52;;;;;;;11.57;6.63;;;6.70;99.40;;;;;;5046132;28;20510;-73
2023/03/08 09:42:26;;;;;;;8.70;5.63;;;6.70;99.70;;;;;;5046605;28;20527;-74
2023/03/08 09:45:18;;;;;;;8.07;5.33;;;6.70;99.90;;;;;;5048049;28;20179;-74
2023/03/08 09:47:50;;;;;;;11.30;6.03;;;6.70;99.90;;;;;;5047787;28;20426;-74
2023/03/08 09:50:26;;;;;;;9.70;5.07;;;6.80;99.90;;;;;;5047353;28;20422;-73
2023/03/08 09:53:13;;;;;;;7.10;5.30;;;6.80;99.90;;;;;;5047393;28;20410;-74
2023/03/08 09:55:53;;;;;;;8.00;5.57;;;6.90;99.90;;;;;;5047557;28;20433;-74
2023/03/08 09:58:24;;;;;;;6.47;4.93;;;6.90;99.90;;;;;;5047188;28;20434;-73
2023/03/08 10:00:50;;;;;;;5.97;4.60;;;7.00;99.90;;;;;;5047087;28;20468;-74
2023/03/08 10:03:44;;;;;;;7.60;5.03;;;7.20;99.90;;;;;;5047237;28;20414;-73
2023/03/08 10:06:42;;;;;;;6.10;4.70;;;7.20;99.90;;;;;;5047366;28;20422;-74
2023/03/08 10:09:31;;;;;;;4.83;3.63;;;7.30;99.90;;;;;;5046723;28;20461;-74
2023/03/08 10:12:33;;;;;;;6.83;4.70;;;7.30;99.90;;;;;;5049090;28;20425;-74
2023/03/08 10:15:14;;;;;;;4.57;4.13;;;7.30;99.90;;;;;;5051016;28;20414;-74
2023/03/08 10:17:43;;;;;;;5.90;4.10;;;7.40;99.90;;;;;;5051086;28;20422;-74
2023/03/08 10:20:36;;;;;;;5.47;4.30;;;7.50;99.90;;;;;;5051290;28;20501;-74
2023/03/08 10:23:13;;;;;;;5.90;4.10;;;7.70;99.90;;;;;;5050320;28;20441;-75
2023/03/08 10:25:38;;;;;;;4.63;3.13;;;7.70;99.90;;;;;;5051406;28;20413;-74
2023/03/08 10:28:20;;;;;;;2.90;2.60;;;7.80;99.90;;;;;;5051126;28;21123;-75
2023/03/08 10:30:52;;;;;;;2.33;2.07;;;7.90;99.90;;;;;;5051051;28;20198;-74
2023/03/08 10:33:20;;;;;;;1.97;1.47;;;8.00;99.90;;;;;;5051307;28;20925;-75
2023/03/08 10:36:05;;;;;;;2.20;1.63;;;8.20;99.90;;;;;;5050834;28;20453;-75
2023/03/08 10:38:32;;;;;;;1.27;1.07;;;8.30;99.90;;;;;;5049243;28;20457;-74
2023/03/08 10:41:05;;;;;;;2.17;1.50;;;8.50;99.90;;;;;;5051060;28;21020;-74
2023/03/08 10:43:38;;;;;;;2.90;1.37;;;8.60;99.90;;;;;;5049441;28;21198;-74
2023/03/08 10:46:09;;;;;;;3.57;1.10;;;8.70;99.90;;;;;;5050825;28;20418;-75
2023/03/08 10:48:35;;;;;;;1.20;0.73;;;8.90;99.90;;;;;;5050555;28;20556;-75
2023/03/08 10:51:04;;;;;;;1.43;1.10;;;9.00;99.90;;;;;;5050679;28;20522;-74
2023/03/08 10:53:30;;;;;;;0.90;0.80;;;9.10;99.90;;;;;;5050665;28;20187;-74
2023/03/08 10:55:58;;;;;;;1.63;0.90;;;9.20;99.90;;;;;;5050821;28;20442;-75
2023/03/08 10:58:42;;;;;;;1.40;1.10;;;9.30;99.90;;;;;;5050825;28;21029;-74
2023/03/08 11:01:26;;;;;;;3.10;0.87;;;9.40;99.90;;;;;;5052124;28;20476;-74
2023/03/08 11:04:04;;;;;;;1.07;0.80;;;9.50;99.90;;;;;;5050537;28;20430;-74
2023/03/08 11:06:31;;;;;;;0.80;0.80;;;9.60;99.90;;;;;;5050786;28;20437;-75
2023/03/08 11:08:59;;;;;;;1.63;1.13;;;9.70;99.90;;;;;;5050236;28;20557;-74
2023/03/08 11:11:26;;;;;;;1.30;0.90;;;9.80;99.90;;;;;;5050203;28;20457;-74
2023/03/08 11:13:53;;;;;;;3.83;1.10;;;10.00;99.90;;;;;;5049306;28;20436;-74
2023/03/08 11:16:37;;;;;;;1.17;0.80;;;10.00;99.90;;;;;;5049989;28;20418;-74
2023/03/08 11:19:06;;;;;;;0.90;0.70;;;10.10;99.90;;;;;;5049730;28;20434;-74
2023/03/08 11:21:37;;;;;;;2.70;1.00;;;10.20;99.90;;;;;;5049756;28;20533;-74
2023/03/08 11:24:03;;;;;;;0.80;0.70;;;10.30;99.90;;;;;;5048977;28;20430;-73
2023/03/08 11:26:58;;;;;;;1.53;0.90;;;10.50;99.90;;;;;;5049888;28;20485;-73
2023/03/08 11:29:36;;;;;;;1.83;0.73;;;10.60;99.90;;;;;;5049839;28;20320;-72
2023/03/08 11:32:32;;;;;;;3.47;0.70;;;10.80;99.90;;;;;;5050789;28;20429;-73
2023/03/08 11:35:04;;;;;;;1.00;0.90;;;10.90;99.90;;;;;;5048866;28;20506;-74
2023/03/08 11:38:01;;;;;;;0.93;0.63;;;11.10;99.90;;;;;;5050264;28;20446;-74
2023/03/08 11:40:54;;;;;;;0.80;0.77;;;11.20;99.90;;;;;;5046068;28;20500;-75
2023/03/08 11:43:40;;;;;;;1.10;0.80;;;11.30;99.90;;;;;;5050405;28;20422;-73
2023/03/08 11:46:31;;;;;;;2.30;0.70;;;11.50;99.90;;;;;;5050093;28;20562;-73
2023/03/08 11:49:15;;;;;;;1.23;0.70;;;11.60;99.90;;;;;;5050097;28;20477;-73
2023/03/08 11:52:11;;;;;;;0.70;0.50;;;11.80;99.90;;;;;;5049905;28;20448;-73
2023/03/08 11:54:48;;;;;;;2.40;0.67;;;11.80;99.90;;;;;;5049659;28;20489;-73
2023/03/08 11:57:16;;;;;;;0.90;0.40;;;11.90;99.90;;;;;;5049974;28;20411;-73
2023/03/08 12:00:12;;;;;;;1.33;0.60;;;11.80;99.90;;;;;;5048065;28;20606;-74
2023/03/08 12:02:42;;;;;;;1.63;0.70;;;11.90;99.90;;;;;;5049684;28;20441;-72
2023/03/08 12:05:28;;;;;;;1.83;0.63;;;12.00;99.90;;;;;;5049262;28;20414;-74
2023/03/08 12:08:29;;;;;;;1.37;0.63;;;11.80;99.90;;;;;;5049561;28;20888;-73
2023/03/08 12:11:04;;;;;;;1.80;0.70;;;11.80;99.90;;;;;;5049778;28;20938;-74
2023/03/08 12:13:29;;;;;;;1.27;0.50;;;11.80;99.90;;;;;;5049726;28;20428;-73
2023/03/08 12:16:25;;;;;;;0.93;0.67;;;12.00;99.90;;;;;;5050041;28;20436;-74
2023/03/08 12:19:18;;;;;;;0.70;0.50;;;12.00;99.90;;;;;;5048511;28;20259;-74
2023/03/08 12:22:02;;;;;;;0.97;0.87;;;12.20;99.90;;;;;;5049276;28;20452;-74
2023/03/08 12:24:47;;;;;;;1.30;0.60;;;12.20;99.90;;;;;;5049466;28;20458;-74
2023/03/08 12:27:38;;;;;;;3.10;0.60;;;12.20;99.90;;;;;;5049499;28;21229;-74
2023/03/08 12:30:09;;;;;;;0.70;0.40;;;12.20;99.90;;;;;;5049217;28;20415;-74
2023/03/08 12:32:40;;;;;;;4.30;0.50;;;12.50;99.90;;;;;;5049122;28;20412;-75
2023/03/08 12:35:29;;;;;;;0.87;0.57;;;12.50;99.90;;;;;;5048449;28;20527;-74
2023/03/08 12:38:03;;;;;;;2.43;0.60;;;12.70;99.90;;;;;;5048697;28;21115;-74
2023/03/08 12:40:51;;;;;;;1.63;0.60;;;12.80;99.90;;;;;;5048837;28;20475;-74
2023/03/08 12:43:19;;;;;;;1.00;0.57;;;12.80;99.90;;;;;;5048668;28;20890;-73
2023/03/08 12:45:55;;;;;;;3.60;0.83;;;12.80;99.90;;;;;;5048728;28;20956;-73
2023/03/08 12:48:34;;;;;;;4.50;0.50;;;12.80;99.90;;;;;;5048432;28;20511;-74
2023/03/08 12:51:27;;;;;;;1.10;0.60;;;12.80;99.90;;;;;;5048638;28;20431;-74
2023/03/08 12:53:52;;;;;;;1.00;0.60;;;12.80;99.90;;;;;;5047872;28;20434;-74
2023/03/08 12:56:32;;;;;;;0.80;0.47;;;12.70;99.90;;;;;;5048579;28;20432;-73
2023/03/08 12:59:18;;;;;;;1.40;0.60;;;12.70;99.90;;;;;;5048381;28;20758;-74
2023/03/08 13:01:57;;;;;;;1.17;0.60;;;12.40;99.90;;;;;;5044145;28;20555;-74